Startpagina
METAR-TAF:

METAR-TAF

Vliegvelden :

Luchthaven Caïro Internationaal

Caïro, Egypte

breedte: 30-08N, lengte: 031-24E, hoogte: 64 m

Actueel weer

Dit bericht is 30 minuten geleden gemaakt, om 21:30 UTC
Wind 4 kt uit het oostnoordoosten
Temperatuur 19°C
Vochtigheid 64%
Druk 1021 hPa
Zicht: 6000 m
Weinig wolken op 2500 ft
Verspreide wolken op 3000 ft

METAR: HECA 162130Z 07004KT 6000 FEW025 SCT030 19/12 Q1021 NOSIG

Tijdstip: 00:00 (22:00 UTC)

Verwachting

Dit bericht is 5 uur en het 0 minuten geleden gemaakt, om 17:00 UTC
Verwachting geldig van 16 om 18 UTC tot 17 om 24 UTC
Wind 6 kt uit het noorden
Zicht 10 km of meer
Verspreide wolken op 2500 ft
Tijdelijke
van 17 om 00 UTC tot 17 om 08 UTC
Wind 3 kt uit variabele richting
Zicht: 4000 m
Heiigheid

TAF: HECA 161700Z 1618/1724 36006KT 9999 SCT025 TEMPO 1700/1708 VRB03KT 4000 HZ NSC

Waarnemingen en weersverwachtingen van meer dan 4000 vliegvelden (METAR en TAF).

De beschikbare stations zijn de gele en rode punten op de kaart.

Ga met uw muis naar het station om de naam te zien.

Klik dan om waarnemingen en weersverwachtingen te zien.

kaart wijzigen: klik op de groene knoppen met een zwart kruis om in te zoomen, op de groene knop met een streepje om uit te zoomen of op de groene pijlen voor aangrenzende kaarten.


METAR-TAF: